Nearby METAR Reports

 

KMTN - Baltimore/Martin, Maryland, USA
Distance from station: SSE 8mi, 13km
Updated: Sun, 07-Feb-2016 12:27am EST
Clear
Clear
 Wind from calm
Wind: Calm
Temperature: 32°F , 0°C
Dew Point: 32°F , 0°C
Humidity: 100%
Barometer: 30.28 inHg , 1025.4 hPa
Clouds: Clear
Visibility: 10 miles , 16 km
2016/02/07 05:27 KMTN 070527Z AUTO 00000KT 10SM CLR 00/00 A3028 RMK AO2
KDMH - Baltimore/Dwntwn, Maryland, USA
Distance from station: SW 12mi, 19km
Updated: Sat, 06-Feb-2016 11:54pm EST

 
Temperature: 36°F , 2°C
Dew Point: 23°F , -5°C
Humidity: 60%
Barometer: 30.26 inHg , 1024.7 hPa
2016/02/07 04:54 KDMH 070454Z AUTO 02/M05 A3026 RMK AO1 SLP248 T00221050 400781011
 
KBWI - Balto/Wash Intl, Maryland, USA
Distance from station: SSW 20mi, 33km
Updated: Sat, 06-Feb-2016 11:54pm EST
Partly cloudy
Partly cloudy
 Wind from calm
Wind: Calm
Temperature: 28°F , -2°C
Dew Point: 23°F , -5°C
Humidity: 80%
Barometer: 30.25 inHg , 1024.4 hPa
Clouds: Partly cloudy
Visibility: 10 miles , 16 km
Cloud details: Partly cloudy 18000 ft
2016/02/07 04:54 KBWI 070454Z 00000KT 10SM SCT180 M02/M05 A3025 RMK AO2 SLP246 T10171050 400671056
KDMW - Carroll Cnty, Maryland, USA
Distance from station: WNW 30mi, 48km
Updated: Sun, 07-Feb-2016 12:25am EST
Clear
Clear
 Wind from SSE
Wind: SSE 5 mph , 7 km/h
Temperature: 30°F , -1°C
Wind Chill: 25°F , -4°C
Dew Point: 25°F , -4°C
Humidity: 80%
Barometer: 30.21 inHg , 1023 hPa
Clouds: Clear
Visibility: 10 miles , 16 km
2016/02/07 05:25 KDMW 070525Z AUTO 15004KT 10SM CLR M01/M04 A3021 RMK AO2
 
KNAK - Annapolis/Naval, Maryland, USA
Distance from station: S 30mi, 48km
Updated: Sat, 06-Feb-2016 11:54pm EST
Clear
Clear
 Wind from calm
Wind: Calm
Temperature: 32°F , 0°C
Dew Point: 25°F , -4°C
Humidity: 75%
Barometer: 30.26 inHg , 1024.7 hPa
Clouds: Clear
Visibility: 10 miles , 16 km
2016/02/07 04:54 KNAK 070454Z AUTO 00000KT 10SM CLR 00/M04 A3026 RMK AO2 SLP249 T00001044 400501028
KW29 - Stevensville, Maryland, USA
Distance from station: SSE 31mi, 50km
Updated: Sun, 07-Feb-2016 12:26am EST

 Wind from calm
Wind: Calm
Temperature: 32°F , 0°C
Dew Point: 28°F , -2°C
Humidity: 87%
Barometer: 30.28 inHg , 1025.4 hPa
Visibility: 10 miles , 16 km
2016/02/07 05:26 KW29 070526Z AUTO 00000KT 10SM 00/M02 A3028 RMK AO1
 
KCGS - College Park, Maryland, USA
Distance from station: SW 38mi, 61km
Updated: Sun, 07-Feb-2016 12:25am EST
Clear
Clear
 Wind from calm
Wind: Calm
Temperature: 30°F , -1°C
Dew Point: 27°F , -3°C
Humidity: 86%
Barometer: 30.26 inHg , 1024.7 hPa
Clouds: Clear
Visibility: 10 miles , 16 km
2016/02/07 05:25 KCGS 070525Z AUTO 00000KT 10SM CLR M01/M03 A3026 RMK AO1
KGAI - Gaithersburg, Maryland, USA
Distance from station: WSW 40mi, 65km
Updated: Sun, 07-Feb-2016 12:15am EST
Clear
Clear
 Wind from SE
Wind: SE 6 mph , 9 km/h
Temperature: 30°F , -1°C
Wind Chill: 24°F , -4°C
Dew Point: 18°F , -8°C
Humidity: 59%
Barometer: 30.27 inHg , 1025.1 hPa
Clouds: Clear
Visibility: 10 miles , 16 km
2016/02/07 05:15 KGAI 070515Z AUTO 13005KT 10SM CLR M01/M08 A3027 RMK AO1
 
KTHV - York, Pennsylvania, USA
Distance from station: NNW 40mi, 65km
Updated: Sat, 06-Feb-2016 11:53pm EST
Clear
Clear
 Wind from calm
Wind: Calm
Temperature: 21°F , -6°C
Dew Point: 18°F , -8°C
Humidity: 86%
Barometer: 30.23 inHg , 1023.7 hPa
Clouds: Clear
Visibility: 10 miles , 16 km
2016/02/07 04:53 KTHV 070453Z AUTO 00000KT 10SM CLR M06/M08 A3023 RMK AO2 SLP245 T10561078 400561078
KFDK - Frederick, Maryland, USA
Distance from station: W 47mi, 75km
Updated: Sun, 07-Feb-2016 12:20am EST
Clear
Clear
 Wind from calm
Wind: Calm
Temperature: 27°F , -3°C
Dew Point: 27°F , -3°C
Humidity: 100%
Barometer: 30.26 inHg , 1024.7 hPa
Clouds: Clear
Visibility: 10 miles , 16 km
2016/02/07 05:20 KFDK 070520Z AUTO 00000KT 10SM CLR M03/M03 A3026 RMK AO2
 
KESN - Easton/Newnam, Maryland, USA
Distance from station: SSE 48mi, 78km
Updated: Sun, 07-Feb-2016 12:24am EST
Clear
Clear
 Wind from calm
Wind: Calm
Temperature: 30°F , -1°C
Dew Point: 27°F , -3°C
Humidity: 86%
Barometer: 30.31 inHg , 1026.4 hPa
Clouds: Clear
Visibility: 10 miles , 16 km
2016/02/07 05:24 KESN 070524Z AUTO 00000KT 10SM CLR M01/M03 A3031 RMK AO2 T10081034
KDCA - Washington/Natl, Washington D.c., USA
Distance from station: SW 49mi, 79km
Updated: Sat, 06-Feb-2016 11:52pm EST
Partly cloudy
Partly cloudy
 Wind from SE
Wind: SE 5 mph , 7 km/h
Temperature: 36°F , 2°C
Wind Chill: 32°F , 0°C
Dew Point: 25°F , -4°C
Humidity: 65%
Barometer: 30.27 inHg , 1025.1 hPa
Clouds: Partly cloudy
Visibility: 10 miles , 16 km
Cloud details: Few Clouds 16000 ft
Partly cloudy 20000 ft
2016/02/07 04:52 KDCA 070452Z 14004KT 10SM FEW160 SCT200 02/M04 A3027 RMK AO2 SLP250 T00171039 400671022
 
KLNS - Lancaster, Pennsylvania, USA
Distance from station: N 49mi, 79km
Updated: Sat, 06-Feb-2016 11:53pm EST
Clear
Clear
 Wind from calm
Wind: Calm
Temperature: 27°F , -3°C
Dew Point: 21°F , -6°C
Humidity: 80%
Barometer: 30.25 inHg , 1024.4 hPa
Clouds: Clear
Visibility: 8 miles , 13 km
2016/02/07 04:53 KLNS 070453Z AUTO 00000KT 8SM CLR M03/M06 A3025 RMK AO2 SLP246 T10331061 400501061
KILG - Wilmington, Delaware, USA
Distance from station: ENE 50mi, 81km
Updated: Sat, 06-Feb-2016 11:51pm EST
Clear
Clear
 Wind from calm
Wind: Calm
Temperature: 32°F , 0°C
Dew Point: 28°F , -2°C
Humidity: 87%
Barometer: 30.28 inHg , 1025.4 hPa
Clouds: Clear
Visibility: 10 miles , 16 km
2016/02/07 04:51 KILG 070451Z 00000KT 10SM CLR 00/M02 A3028 RMK AO2 SLP253 T00001017 400611050